Pecan, Mississippi
Current Conditions -  °F | °C
As of 5:53 PM on Monday 20 Oct 2014 (Local Time) from KPQL Reporting Station
Clear Clear  
Wind Chill: 72°   Ceiling: Unl
Heat Index: 72°   Visibility: 10mi
Dew Point: 51°   Wind: 0mph
Humidity: 48%   Direction: NA
Pressure: 29.99"   Gusts: NA
Location:  30.3649°N, 88.5432°W
Report Text: KPQL 202253Z 00000KT 10SM CLR 22/11 A2999 RMK AO2 SLP155 T02220106
Loading
Personal Weather Stations






























Interactive Weather Map
Tropical Storm Tracking
New forecast layout! Learn more

10-Day Weather Forecast

Advertisements
Track Severe Weather on mobile